Furenas — OZ2085 — position and weather

sailwx.info

Track history (hours):
 
Tides and Currents Weather Stations Pressure Air Temp Water Temp Dewpoint Dewpoint Depression Visibility Wind Speed Wind Dir Waves Ship Positions

Furenas

Last reported at 2014-Dec-22 22:22 UTC. Time now 2014-Dec-22 23:29 UTC.
Position N 52°25' E 004°45'.

Length 137 m; draft 7.7 m.

Type: Ship (hazmat cat A). MMSI: 231734000.

Date/timePositionNaut miles runAvg speedWind from/ knotsBaromVisibWave heightAir tempDewpointWater temp
2014-Dec-22 22:22N 52°25' E 004°45'0 0.0
2014-Dec-22 21:31N 52°25' E 004°45'0 0.0
2014-Dec-22 20:34N 52°25' E 004°45'0 0.0
2014-Dec-22 19:33N 52°25' E 004°45'2 1.5
2014-Dec-22 18:33N 52°26' E 004°43'5 4.6
2014-Dec-22 17:33N 52°28' E 004°37'6 6.3
2014-Dec-22 16:33N 52°29' E 004°26'1111.3
2014-Dec-22 15:33N 52°29' E 004°08'3 2.9
2014-Dec-22 14:25N 52°27' E 004°03'0 0.0
2014-Dec-22 13:25N 52°27' E 004°03'0 0.1
2014-Dec-22 12:28N 52°27' E 004°03'0 0.0
2014-Dec-22 11:22N 52°27' E 004°03'0 0.0
2014-Dec-22 10:10N 52°27' E 004°03'0 0.1
2014-Dec-22 09:19N 52°27' E 004°03'0 0.0
2014-Dec-22 08:31N 52°27' E 004°03'0 0.1
2014-Dec-22 07:31N 52°27' E 004°03'0 0.1
2014-Dec-22 06:31N 52°27' E 004°03'0 0.0
2014-Dec-22 05:31N 52°27' E 004°03'0 0.0
2014-Dec-22 04:19N 52°27' E 004°03'0 0.0
2014-Dec-22 03:10N 52°27' E 004°03'0 0.1
2014-Dec-22 02:28N 52°27' E 004°03'0 0.0
2014-Dec-22 01:31N 52°27' E 004°03'0 0.2
2014-Dec-22 00:22N 52°27' E 004°03'0 0.0
2014-Dec-21 23:31N 52°27' E 004°03'0 0.0
2014-Dec-21 22:31N 52°27' E 004°03'0 0.0
2014-Dec-21 21:31N 52°27' E 004°03'0 0.0
2014-Dec-21 20:31N 52°27' E 004°03'0 0.0
2014-Dec-21 19:28N 52°27' E 004°03'0 0.0
2014-Dec-21 18:25N 52°27' E 004°03'0 0.0
2014-Dec-21 17:16N 52°27' E 004°03'0 0.0
2014-Dec-21 16:31N 52°27' E 004°03'0 0.0
2014-Dec-21 15:28N 52°27' E 004°02'0 0.0
2014-Dec-21 14:22N 52°27' E 004°02'0 0.0
2014-Dec-21 13:28N 52°27' E 004°02'0 0.1
2014-Dec-21 12:28N 52°26' E 004°03'0 0.0
2014-Dec-21 11:21N 52°26' E 004°03'0 0.0
2014-Dec-21 10:30N 52°26' E 004°03'0 0.1
2014-Dec-21 09:33N 52°26' E 004°02'0 0.1
2014-Dec-21 08:33N 52°26' E 004°02'7 7.4
2014-Dec-21 07:33N 52°33' E 004°06'4411.1
2014-Dec-21 03:33N 53°16' E 004°28'1111.3
2014-Dec-21 02:33N 53°26' E 004°35'10 9.8
2014-Dec-21 01:33N 53°31' E 004°49'10 9.8
2014-Dec-21 00:32N 53°35' E 005°05'9 9.6
2014-Dec-20 23:33N 53°37' E 005°20'10 9.9
2014-Dec-20 22:33N 53°41' E 005°36'9 9.4
2014-Dec-20 21:33N 53°44' E 005°51'8 8.3
2014-Dec-20 20:33N 53°46' E 006°04'53 6.6
2014-Dec-20 12:33N 54°00' E 007°31'7 7.5
2014-Dec-20 11:33N 54°02' E 007°44'7 6.6
2014-Dec-20 10:33N 54°01' E 007°55'6 6.2
2014-Dec-20 09:33N 54°01' E 008°05'6 6.3
2014-Dec-20 08:34N 54°00' E 008°16'8 8.1
2014-Dec-20 07:33N 53°59' E 008°30'8 8.4
2014-Dec-20 06:33N 53°54' E 008°42'1010.1
2014-Dec-20 05:33N 53°51' E 008°58'7 6.9
2014-Dec-20 04:33N 53°54' E 009°09'4 4.4
2014-Dec-20 03:33N 53°57' E 009°14'8 8.4
2014-Dec-20 02:33N 54°05' E 009°19'7 7.3
2014-Dec-20 01:33N 54°10' E 009°27'4 3.5
2014-Dec-20 00:20N 54°12' E 009°33'4 4.6
2014-Dec-19 23:33N 54°15' E 009°37'4 4.5
2014-Dec-19 22:33N 54°18' E 009°42'3 2.7
2014-Dec-19 21:33N 54°20' E 009°45'7 7.2
2014-Dec-19 20:33N 54°21' E 009°57'4 4.2
2014-Dec-19 19:33N 54°22' E 010°04'2 2.1
2014-Dec-19 18:31N 54°22' E 010°08'0 0.0
2014-Dec-19 17:33N 54°22' E 010°08'1 0.8
2014-Dec-19 16:34N 54°22' E 010°09'9 9.0
2014-Dec-19 15:33N 54°29' E 010°17'1211.7
2014-Dec-19 14:33N 54°35' E 010°36'1312.0
2014-Dec-19 13:27N 54°36' E 010°58'1011.5
2014-Dec-19 12:33N 54°35' E 011°16'1211.7
2014-Dec-19 11:33N 54°29' E 011°34'1212.3
2014-Dec-19 10:33N 54°27' E 011°55'1110.8
2014-Dec-19 09:33N 54°31' E 012°12'9612.0
2014-Dec-19 01:33N 54°40' E 014°56'11812.6
2014-Dec-18 16:13N 54°59' E 018°18'812.4
2014-Dec-18 15:33N 54°57' E 018°32'1212.4
2014-Dec-18 14:33N 54°51' E 018°50'1211.8
2014-Dec-18 13:33N 54°42' E 019°04'1110.6
2014-Dec-18 12:34N 54°31' E 019°03'1111.0
2014-Dec-18 11:33N 54°25' E 018°48'3 2.9
2014-Dec-18 10:34N 54°24' E 018°43'0 0.0
2014-Dec-18 09:33N 54°24' E 018°43'0 0.0
2014-Dec-17 11:34N 54°24' E 018°43'2 1.8
2014-Dec-17 10:34N 54°24' E 018°46'5 4.7
2014-Dec-17 09:32N 54°27' E 018°53'0 0.0
2014-Dec-17 08:32N 54°27' E 018°53'0 0.0
2014-Dec-17 07:32N 54°27' E 018°53'0 0.0
2014-Dec-17 06:32N 54°27' E 018°53'0 0.0
2014-Dec-17 05:29N 54°27' E 018°53'0 0.0
2014-Dec-17 04:32N 54°27' E 018°53'0 0.0
2014-Dec-17 03:32N 54°27' E 018°53'0 0.0
2014-Dec-17 02:32N 54°27' E 018°53'0 0.0
2014-Dec-17 01:32N 54°27' E 018°53'0 0.0
2014-Dec-17 00:32N 54°27' E 018°53'0 0.0
2014-Dec-16 23:32N 54°27' E 018°53'0 0.4
2014-Dec-16 22:33N 54°27' E 018°53'8 7.9
2014-Dec-16 21:33N 54°33' E 019°02'9 9.0
2014-Dec-16 20:33N 54°42' E 019°03'9 9.4
2014-Dec-16 19:33N 54°52' E 019°04'10 9.5
2014-Dec-16 18:32N 55°01' E 019°06'263 9.3
2014-Dec-15 14:17N 59°23' E 018°27'7 8.6
2014-Dec-15 13:30N 59°21' E 018°14'3 0.2
2014-Dec-14 23:18N 59°19' E 018°10'1 1.6
2014-Dec-14 22:34N 59°20' E 018°12'25810.5
2014-Dec-13 22:06N 55°04' E 019°09'611.5
2014-Dec-13 21:33N 54°58' E 019°08'1211.7
2014-Dec-13 20:33N 54°46' E 019°06'1111.3
2014-Dec-13 19:33N 54°35' E 019°06'1111.1
2014-Dec-13 18:33N 54°26' E 018°55'7 7.0
2014-Dec-13 17:33N 54°24' E 018°43'  
Track history (hours):
 
Tides and Currents Weather Stations Pressure Air Temp Water Temp Dewpoint Dewpoint Depression Visibility Wind Speed Wind Dir Waves Ship Positions

Furenas

Last reported at 2014-Dec-22 22:22 UTC. Time now 2014-Dec-22 23:29 UTC.
Position N 52°25' E 004°45'.

Length 137 m; draft 7.7 m.

Type: Ship (hazmat cat A). MMSI: 231734000.

Date/timePositionNaut miles runAvg speedWind from/ knotsBaromVisibWave heightAir tempDewpointWater temp
2014-Dec-22 22:22N 52°25' E 004°45'0 0.0
2014-Dec-22 21:31N 52°25' E 004°45'0 0.0
2014-Dec-22 20:34N 52°25' E 004°45'0 0.0
2014-Dec-22 19:33N 52°25' E 004°45'2 1.5
2014-Dec-22 18:33N 52°26' E 004°43'5 4.6
2014-Dec-22 17:33N 52°28' E 004°37'6 6.3
2014-Dec-22 16:33N 52°29' E 004°26'1111.3
2014-Dec-22 15:33N 52°29' E 004°08'3 2.9
2014-Dec-22 14:25N 52°27' E 004°03'0 0.0
2014-Dec-22 13:25N 52°27' E 004°03'0 0.1
2014-Dec-22 12:28N 52°27' E 004°03'0 0.0
2014-Dec-22 11:22N 52°27' E 004°03'0 0.0
2014-Dec-22 10:10N 52°27' E 004°03'0 0.1
2014-Dec-22 09:19N 52°27' E 004°03'0 0.0
2014-Dec-22 08:31N 52°27' E 004°03'0 0.1
2014-Dec-22 07:31N 52°27' E 004°03'0 0.1
2014-Dec-22 06:31N 52°27' E 004°03'0 0.0
2014-Dec-22 05:31N 52°27' E 004°03'0 0.0
2014-Dec-22 04:19N 52°27' E 004°03'0 0.0
2014-Dec-22 03:10N 52°27' E 004°03'0 0.1
2014-Dec-22 02:28N 52°27' E 004°03'0 0.0
2014-Dec-22 01:31N 52°27' E 004°03'0 0.2
2014-Dec-22 00:22N 52°27' E 004°03'0 0.0
2014-Dec-21 23:31N 52°27' E 004°03'0 0.0
2014-Dec-21 22:31N 52°27' E 004°03'0 0.0
2014-Dec-21 21:31N 52°27' E 004°03'0 0.0
2014-Dec-21 20:31N 52°27' E 004°03'0 0.0
2014-Dec-21 19:28N 52°27' E 004°03'0 0.0
2014-Dec-21 18:25N 52°27' E 004°03'0 0.0
2014-Dec-21 17:16N 52°27' E 004°03'0 0.0
2014-Dec-21 16:31N 52°27' E 004°03'0 0.0
2014-Dec-21 15:28N 52°27' E 004°02'0 0.0
2014-Dec-21 14:22N 52°27' E 004°02'0 0.0
2014-Dec-21 13:28N 52°27' E 004°02'0 0.1
2014-Dec-21 12:28N 52°26' E 004°03'0 0.0
2014-Dec-21 11:21N 52°26' E 004°03'0 0.0
2014-Dec-21 10:30N 52°26' E 004°03'0 0.1
2014-Dec-21 09:33N 52°26' E 004°02'0 0.1
2014-Dec-21 08:33N 52°26' E 004°02'7 7.4
2014-Dec-21 07:33N 52°33' E 004°06'4411.1
2014-Dec-21 03:33N 53°16' E 004°28'1111.3
2014-Dec-21 02:33N 53°26' E 004°35'10 9.8
2014-Dec-21 01:33N 53°31' E 004°49'10 9.8
2014-Dec-21 00:32N 53°35' E 005°05'9 9.6
2014-Dec-20 23:33N 53°37' E 005°20'10 9.9
2014-Dec-20 22:33N 53°41' E 005°36'9 9.4
2014-Dec-20 21:33N 53°44' E 005°51'8 8.3
2014-Dec-20 20:33N 53°46' E 006°04'53 6.6
2014-Dec-20 12:33N 54°00' E 007°31'7 7.5
2014-Dec-20 11:33N 54°02' E 007°44'7 6.6
2014-Dec-20 10:33N 54°01' E 007°55'6 6.2
2014-Dec-20 09:33N 54°01' E 008°05'6 6.3
2014-Dec-20 08:34N 54°00' E 008°16'8 8.1
2014-Dec-20 07:33N 53°59' E 008°30'8 8.4
2014-Dec-20 06:33N 53°54' E 008°42'1010.1
2014-Dec-20 05:33N 53°51' E 008°58'7 6.9
2014-Dec-20 04:33N 53°54' E 009°09'4 4.4
2014-Dec-20 03:33N 53°57' E 009°14'8 8.4
2014-Dec-20 02:33N 54°05' E 009°19'7 7.3
2014-Dec-20 01:33N 54°10' E 009°27'4 3.5
2014-Dec-20 00:20N 54°12' E 009°33'4 4.6
2014-Dec-19 23:33N 54°15' E 009°37'4 4.5
2014-Dec-19 22:33N 54°18' E 009°42'3 2.7
2014-Dec-19 21:33N 54°20' E 009°45'7 7.2
2014-Dec-19 20:33N 54°21' E 009°57'4 4.2
2014-Dec-19 19:33N 54°22' E 010°04'2 2.1
2014-Dec-19 18:31N 54°22' E 010°08'0 0.0
2014-Dec-19 17:33N 54°22' E 010°08'1 0.8
2014-Dec-19 16:34N 54°22' E 010°09'9 9.0
2014-Dec-19 15:33N 54°29' E 010°17'1211.7
2014-Dec-19 14:33N 54°35' E 010°36'1312.0
2014-Dec-19 13:27N 54°36' E 010°58'1011.5
2014-Dec-19 12:33N 54°35' E 011°16'1211.7
2014-Dec-19 11:33N 54°29' E 011°34'1212.3
2014-Dec-19 10:33N 54°27' E 011°55'1110.8
2014-Dec-19 09:33N 54°31' E 012°12'9612.0
2014-Dec-19 01:33N 54°40' E 014°56'11812.6
2014-Dec-18 16:13N 54°59' E 018°18'812.4
2014-Dec-18 15:33N 54°57' E 018°32'1212.4
2014-Dec-18 14:33N 54°51' E 018°50'1211.8
2014-Dec-18 13:33N 54°42' E 019°04'1110.6
2014-Dec-18 12:34N 54°31' E 019°03'1111.0
2014-Dec-18 11:33N 54°25' E 018°48'3 2.9
2014-Dec-18 10:34N 54°24' E 018°43'0 0.0
2014-Dec-18 09:33N 54°24' E 018°43'0 0.0
2014-Dec-17 11:34N 54°24' E 018°43'2 1.8
2014-Dec-17 10:34N 54°24' E 018°46'5 4.7
2014-Dec-17 09:32N 54°27' E 018°53'0 0.0
2014-Dec-17 08:32N 54°27' E 018°53'0 0.0
2014-Dec-17 07:32N 54°27' E 018°53'0 0.0
2014-Dec-17 06:32N 54°27' E 018°53'0 0.0
2014-Dec-17 05:29N 54°27' E 018°53'0 0.0
2014-Dec-17 04:32N 54°27' E 018°53'0 0.0
2014-Dec-17 03:32N 54°27' E 018°53'0 0.0
2014-Dec-17 02:32N 54°27' E 018°53'0 0.0
2014-Dec-17 01:32N 54°27' E 018°53'0 0.0
2014-Dec-17 00:32N 54°27' E 018°53'0 0.0
2014-Dec-16 23:32N 54°27' E 018°53'0 0.4
2014-Dec-16 22:33N 54°27' E 018°53'8 7.9
2014-Dec-16 21:33N 54°33' E 019°02'9 9.0
2014-Dec-16 20:33N 54°42' E 019°03'9 9.4
2014-Dec-16 19:33N 54°52' E 019°04'10 9.5
2014-Dec-16 18:32N 55°01' E 019°06'263 9.3
2014-Dec-15 14:17N 59°23' E 018°27'7 8.6
2014-Dec-15 13:30N 59°21' E 018°14'3 0.2
2014-Dec-14 23:18N 59°19' E 018°10'1 1.6
2014-Dec-14 22:34N 59°20' E 018°12'25810.5
2014-Dec-13 22:06N 55°04' E 019°09'611.5
2014-Dec-13 21:33N 54°58' E 019°08'1211.7
2014-Dec-13 20:33N 54°46' E 019°06'1111.3
2014-Dec-13 19:33N 54°35' E 019°06'1111.1
2014-Dec-13 18:33N 54°26' E 018°55'7 7.0
2014-Dec-13 17:33N 54°24' E 018°43'  

Dump ship's entire track history